sensor_id;sensor_type;location;lat;lon;timestamp;pressure;altitude;pressure_sealevel;temperature
77355;BMP280;66422;51.202;19.936;2024-03-08T00:07:40;100120.02;;;-2.78
77355;BMP280;66422;51.202;19.936;2024-03-08T00:23:00;100113.14;;;-2.84
77355;BMP280;66422;51.202;19.936;2024-03-08T00:38:19;100113.35;;;-3.02
77355;BMP280;66422;51.202;19.936;2024-03-08T00:53:39;100101.98;;;-3.22
77355;BMP280;66422;51.202;19.936;2024-03-08T01:08:59;100088.34;;;-3.25
77355;BMP280;66422;51.202;19.936;2024-03-08T01:24:19;100080.46;;;-3.48
77355;BMP280;66422;51.202;19.936;2024-03-08T01:39:39;100076.89;;;-3.61
77355;BMP280;66422;51.202;19.936;2024-03-08T01:55:00;100080.59;;;-3.58
77355;BMP280;66422;51.202;19.936;2024-03-08T02:10:21;100066.77;;;-3.86
77355;BMP280;66422;51.202;19.936;2024-03-08T02:25:41;100047.60;;;-3.71
77355;BMP280;66422;51.202;19.936;2024-03-08T02:41:01;100040.80;;;-3.85
77355;BMP280;66422;51.202;19.936;2024-03-08T02:56:23;100044.62;;;-4.03
77355;BMP280;66422;51.202;19.936;2024-03-08T03:11:44;100036.60;;;-4.13
77355;BMP280;66422;51.202;19.936;2024-03-08T03:27:05;100030.86;;;-4.16
77355;BMP280;66422;51.202;19.936;2024-03-08T03:42:30;100038.41;;;-4.17
77355;BMP280;66422;51.202;19.936;2024-03-08T03:57:50;100037.03;;;-4.55
77355;BMP280;66422;51.202;19.936;2024-03-08T04:13:10;100032.67;;;-4.60
77355;BMP280;66422;51.202;19.936;2024-03-08T04:28:30;100029.97;;;-4.55
77355;BMP280;66422;51.202;19.936;2024-03-08T04:43:50;100022.02;;;-4.60
77355;BMP280;66422;51.202;19.936;2024-03-08T04:59:10;100020.77;;;-4.60
77355;BMP280;66422;51.202;19.936;2024-03-08T05:14:30;100023.42;;;-4.59
77355;BMP280;66422;51.202;19.936;2024-03-08T05:29:49;100025.06;;;-4.65
77355;BMP280;66422;51.202;19.936;2024-03-08T05:45:10;100030.36;;;-4.56
77355;BMP280;66422;51.202;19.936;2024-03-08T06:00:30;100036.35;;;-4.20
77355;BMP280;66422;51.202;19.936;2024-03-08T06:15:50;100045.75;;;-3.67
77355;BMP280;66422;51.202;19.936;2024-03-08T06:31:10;100043.64;;;-3.37
77355;BMP280;66422;51.202;19.936;2024-03-08T06:46:30;100050.27;;;-2.65
77355;BMP280;66422;51.202;19.936;2024-03-08T07:01:49;100049.23;;;-1.76
77355;BMP280;66422;51.202;19.936;2024-03-08T07:17:10;100053.55;;;-0.89
77355;BMP280;66422;51.202;19.936;2024-03-08T07:32:29;100045.79;;;-0.49
77355;BMP280;66422;51.202;19.936;2024-03-08T07:47:49;100046.53;;;0.28
77355;BMP280;66422;51.202;19.936;2024-03-08T08:03:10;100040.23;;;1.28
77355;BMP280;66422;51.202;19.936;2024-03-08T08:18:30;100041.91;;;2.14
77355;BMP280;66422;51.202;19.936;2024-03-08T08:33:50;100037.33;;;3.01
77355;BMP280;66422;51.202;19.936;2024-03-08T08:49:11;100027.77;;;3.36
77355;BMP280;66422;51.202;19.936;2024-03-08T09:04:34;100019.64;;;4.27
77355;BMP280;66422;51.202;19.936;2024-03-08T09:19:55;100000.30;;;4.69
77355;BMP280;66422;51.202;19.936;2024-03-08T09:35:15;99990.40;;;5.19
77355;BMP280;66422;51.202;19.936;2024-03-08T09:50:34;99980.15;;;5.87
77355;BMP280;66422;51.202;19.936;2024-03-08T10:05:56;99970.52;;;6.14
77355;BMP280;66422;51.202;19.936;2024-03-08T10:21:19;99957.97;;;6.45
77355;BMP280;66422;51.202;19.936;2024-03-08T10:36:40;99949.17;;;6.63
77355;BMP280;66422;51.202;19.936;2024-03-08T10:52:03;99937.66;;;6.90
77355;BMP280;66422;51.202;19.936;2024-03-08T11:07:24;99930.15;;;6.73
77355;BMP280;66422;51.202;19.936;2024-03-08T11:22:55;99922.10;;;7.54
77355;BMP280;66422;51.202;19.936;2024-03-08T11:38:15;99909.38;;;7.86
77355;BMP280;66422;51.202;19.936;2024-03-08T11:53:35;99894.40;;;7.87
77355;BMP280;66422;51.202;19.936;2024-03-08T12:08:55;99873.30;;;8.15
77355;BMP280;66422;51.202;19.936;2024-03-08T12:24:16;99856.07;;;8.43
77355;BMP280;66422;51.202;19.936;2024-03-08T12:39:40;99844.70;;;8.80
77355;BMP280;66422;51.202;19.936;2024-03-08T12:55:00;99824.45;;;9.12
77355;BMP280;66422;51.202;19.936;2024-03-08T13:10:22;99806.98;;;9.31
77355;BMP280;66422;51.202;19.936;2024-03-08T13:25:42;99789.45;;;9.00
77355;BMP280;66422;51.202;19.936;2024-03-08T13:41:03;99776.73;;;9.26
77355;BMP280;66422;51.202;19.936;2024-03-08T13:56:22;99761.45;;;9.30
77355;BMP280;66422;51.202;19.936;2024-03-08T14:11:43;99750.12;;;9.43
77355;BMP280;66422;51.202;19.936;2024-03-08T14:27:06;99737.54;;;9.48
77355;BMP280;66422;51.202;19.936;2024-03-08T14:42:27;99722.15;;;9.47
77355;BMP280;66422;51.202;19.936;2024-03-08T14:57:49;99711.80;;;9.50
77355;BMP280;66422;51.202;19.936;2024-03-08T15:13:10;99701.92;;;9.57
77355;BMP280;66422;51.202;19.936;2024-03-08T15:28:50;99684.22;;;9.64
77355;BMP280;66422;51.202;19.936;2024-03-08T15:44:11;99683.14;;;8.96
77355;BMP280;66422;51.202;19.936;2024-03-08T15:59:33;99680.97;;;8.41
77355;BMP280;66422;51.202;19.936;2024-03-08T16:14:56;99684.05;;;8.24
77355;BMP280;66422;51.202;19.936;2024-03-08T16:30:17;99688.36;;;8.03
77355;BMP280;66422;51.202;19.936;2024-03-08T16:45:40;99687.95;;;6.67
77355;BMP280;66422;51.202;19.936;2024-03-08T17:01:00;99683.05;;;5.59
77355;BMP280;66422;51.202;19.936;2024-03-08T17:16:21;99682.62;;;4.65
77355;BMP280;66422;51.202;19.936;2024-03-08T17:31:44;99687.26;;;3.98
77355;BMP280;66422;51.202;19.936;2024-03-08T17:47:04;99685.02;;;3.12
77355;BMP280;66422;51.202;19.936;2024-03-08T18:02:23;99684.26;;;2.44
77355;BMP280;66422;51.202;19.936;2024-03-08T18:17:43;99686.54;;;2.06
77355;BMP280;66422;51.202;19.936;2024-03-08T18:33:03;99673.13;;;1.63
77355;BMP280;66422;51.202;19.936;2024-03-08T18:48:23;99676.52;;;1.36
77355;BMP280;66422;51.202;19.936;2024-03-08T19:03:42;99682.03;;;0.87
77355;BMP280;66422;51.202;19.936;2024-03-08T19:19:05;99685.77;;;0.70
77355;BMP280;66422;51.202;19.936;2024-03-08T19:34:25;99680.21;;;0.60
77355;BMP280;66422;51.202;19.936;2024-03-08T19:49:45;99676.45;;;0.60
77355;BMP280;66422;51.202;19.936;2024-03-08T20:05:05;99674.95;;;0.19
77355;BMP280;66422;51.202;19.936;2024-03-08T20:20:25;99667.42;;;0.06
77355;BMP280;66422;51.202;19.936;2024-03-08T20:35:45;99667.36;;;-0.18
77355;BMP280;66422;51.202;19.936;2024-03-08T20:51:05;99655.16;;;-0.73
77355;BMP280;66422;51.202;19.936;2024-03-08T21:06:25;99641.41;;;-0.57
77355;BMP280;66422;51.202;19.936;2024-03-08T21:21:45;99644.00;;;-0.78
77355;BMP280;66422;51.202;19.936;2024-03-08T21:37:05;99636.58;;;-1.06
77355;BMP280;66422;51.202;19.936;2024-03-08T21:52:25;99618.16;;;-1.27
77355;BMP280;66422;51.202;19.936;2024-03-08T22:07:46;99607.14;;;-1.34
77355;BMP280;66422;51.202;19.936;2024-03-08T22:23:07;99615.60;;;-1.57
77355;BMP280;66422;51.202;19.936;2024-03-08T22:38:27;99609.92;;;-1.68
77355;BMP280;66422;51.202;19.936;2024-03-08T22:53:46;99600.17;;;-1.67
77355;BMP280;66422;51.202;19.936;2024-03-08T23:09:06;99591.55;;;-1.58
77355;BMP280;66422;51.202;19.936;2024-03-08T23:24:31;99580.91;;;-2.06
77355;BMP280;66422;51.202;19.936;2024-03-08T23:39:51;99585.05;;;-2.29
77355;BMP280;66422;51.202;19.936;2024-03-08T23:55:11;99574.49;;;-2.53
